Decoded Metar for KFDK (FREDERICK in MD, USA) (IATA:FDK) | Meteo·Mobile Aviation Weather
aviador You're here:

KFDK Decoded Metar

FREDERICK in MD, USA
Report Time2018-12-15 18:47:00
UTC Time2018-12-15 19:33:46
Flight Rules ifr IFR
Wind030° at 11 Gusting to 14 kt
W.Decomp.*RWY 05: 10.8 kt HW 2.3 kt LCW
RWY 12: 1.5 kt HW 10.9 kt LCW
W.Rank030° ranks 11
Current wind is above 030° avg. (5.6)
Visibility4828 m
Phenomena:Rain
Clouds:Overcast 006 Hf
Expected CloudBase > 400 ft AGL from Temp-Dew spread
Ceiling600 ft
Temp11°C (ISA -3)
Dew Point10°C (94% RH)
AAT7.1°C
QNH1017 hPa
Density Alt-72 ft
Elevation302 ft
Report Wrong Elevation
Raw Report
KFDK 151847Z 03011G14KT 3SM RA OVC006 11/10 A3002=

Extra information for KFDK:More info

Metar Taf Metar & Taf Last 4 Metars F.Rules Stats Wind Profile Meteogram Temp Stats Airport Information Weather charts Add Link Nearby VenuesMetar ALERT Operation Metar Decoded Social comments

AIRNAV info for KFDK